Piney View, WV (25906)

5:57 AM EDT on July 28, 2016 (GMT -0400)
Raleigh County Memorial | | Change Station

Elev 2513 ft 37.79 °N, 81.12 °W | Updated 9 minutes ago

Fog
Fog
69 °F
Feels Like 69 °F
N
0
Wind Variable Wind from North

Today
High -- | Low -- °F
--% Chance of Precip.
Yesterday
High -- | Low -- °F
Precip. -- in
Pressure 29.95 in
Visibility 0.5 miles
Clouds Mostly Cloudy 200 ft
Mostly Cloudy 12000 ft
Dew Point 68 °F
Humidity 96%
Rainfall 0.19 in
Snow Depth Not available.
6:24 AM 8:36 PM
Waning Crescent, 34% visible
METAR KBKW 280948Z AUTO 00000KT 1/2SM FG BKN002 BKN120 21/20 A3004 RMK AO2 RAE44 SLP140 P0001 T02060200 $
Pressure 29.95 in
Visibility 0.5 miles
Clouds Mostly Cloudy 200 ft
Mostly Cloudy 12000 ft
Dew Point 68 °F
Humidity 96%
Rainfall 0.19 in
Snow Depth Not available.
6:24 AM 8:36 PM
Waning Crescent, 34% visible
METAR KBKW 280948Z AUTO 00000KT 1/2SM FG BKN002 BKN120 21/20 A3004 RMK AO2 RAE44 SLP140 P0001 T02060200 $

10-Day Weather Forecast

Almanac

Astronomy

Jul. 28, 2016 Rise Set
Actual Time
Civil Twilight
Nautical Twilight
Astronomical Twilight
Moon
Length of Visible Light
Length of Day
Tomorrow will be .
, % of the Moon is Illuminated

Today's Extremes

State Highs State Lows

Community

WunderPhotos

Upload Photos

1,928,070 photos uploaded!

WunderBlog® & News

Nearby

Air Quality

  Air Quality AQ Index Pollutant
Not available.

Snow Depth

Station Depth Elevation

Earthquake Activity

City Distance Mag. Time & Date
Minimum magnitude displayed is 2.5.

Coastal Water Temperatures

Place Temperature

Stations

Nearby Weather Stations

Station Location Temp. Windchill Dew Point Humidity Wind Precip. Elev Updated Type
                   

Watches & Warnings

There are currently no watches in effect.